EDRK1: El Dorado Lake

Data processed at Mon Sep 24 2018 22:32


All information presented herein is the property of the government of the United States of America and may be revised or deleted at any time without prior notice.
Dissemination of this information without the expressed written consent of the Public Affairs Office, Tulsa District U.S. Army Corps of Engineers is strictly prohibited.
These data are gathered electronically and, as presented, have not undergone any form of quality control. These data are not guaranteed to be valid or correct.
Go to home page.
Go to station list.
Go to home page.

Upstream stations:

Downstream station:
Previous Day
Next Day
Current Day
    
SHEF ID:       EDRK1     El Dorado Lake
STATION TYPE:  RESERVOIR
Normal Pool:  Bottom =  1296.00, Top =  1339.00

               PRECIP  RIV-FLOW ELEVATION   STORAGE    INFLOW   RELEASE  AIR-TEMP  WIND-DIRWIND-SPEED REL-HUMID SOLAR-RAD   VOLTAGE  BAT-LOAD
                   in       cfs        ft     ac-ft       cfs       cfs         F       deg       mph         %      W/m2      volt      volt
              Ccp-Rev  Regi-Rev   Ccp-Rev   Ccp-Rev  Regi-Rev  Regi-Rev   Ccp-Rev   Ccp-Rev   Ccp-Rev   Ccp-Rev   Ccp-Rev   Ccp-Rev   Ccp-Rev
(US/Central)
09/24 00:00      0.00      ----   1339.07    158718         0        12     64.81    146.00      6.60     87.76      0.00     12.42     12.25
09/24 01:00      0.00      ----   1339.07    158718         0        12     63.75    164.30      4.30     93.87      0.00     12.41     12.25
09/24 02:00      0.00      ----   1339.07    158718         0        12     63.34    166.00      4.40     97.37      0.00     12.41     12.25
09/24 03:00      0.00      ----   1339.07    158718         0        12     64.04    154.20      4.30     98.16      0.00     12.41     12.25
09/24 04:00      0.00      ----   1339.07    158718         0        12     63.27    144.00      3.40     99.16      0.00     12.41     12.25
09/24 05:00      0.00      ----   1339.07    158718         0        12     63.91    178.50      2.20     99.61      0.00     12.41     12.25
09/24 06:00      0.00      ----   1339.07    158718         0        12     64.62    170.70      2.70     99.43      0.00     12.41     12.25
09/24 07:00      0.00      ----   1339.07    158718         0        12     65.41    169.90      2.90     98.97      0.00     12.40     12.25
09/24 08:00      0.00      ----   1339.07    158718         0        12     65.89    169.50      3.80     99.28      1.30     12.41     12.25
09/24 09:00      0.00      ----   1339.07    158718         0        12     66.88    167.10      3.50     99.38     44.80     12.41     12.01
09/24 10:00      0.00      ----   1339.07    158718         0        12     69.01    167.70      4.40     95.88    116.50     12.40     12.25
09/24 11:00      0.00      ----   1339.07    158718         0        12     70.66    171.00      5.40     90.81    123.40     12.41     12.25
09/24 12:00      0.00      ----   1339.07    158718         3        12     72.68    168.40      5.00     84.87    197.40     12.41     12.17
09/24 13:00      0.00      ----   1339.07    158718         5        12     73.92    182.80      5.30     81.66    304.60     12.40     12.17
09/24 14:00      0.00      ----   1339.07    158718         7        12     77.59    152.70      7.40     74.06    635.50     12.40     12.17
09/24 15:00      0.00      ----   1339.07    158718        10        12     79.36    161.10      8.40     69.78    526.90     12.40     12.17
09/24 16:00      0.00      ----   1339.07    158718        12        12     80.91    164.00      7.90     64.46    531.00     12.40     12.17
09/24 17:00      0.00      ----   1339.06    158642        12        12     81.50    172.90      7.80     61.69    289.20     12.40     12.17
09/24 18:00      0.00      ----   1339.07    158718        12        12     81.01    163.20      9.40     64.83    225.70     12.40     12.17
09/24 19:00      0.00      ----   1339.07    158718        12        12     79.57    145.00      8.80     70.92    126.90     12.40     12.17
09/24 20:00      0.00      ----   1339.07    158718        12        12     75.97    143.80      8.20     79.21      2.20     12.40     12.17
09/24 21:00      0.00      ----   1339.07    158718        12        12     73.31    145.50      6.50     85.55      0.00     12.39     12.17
09/24 22:00      ----      ----      ----      ----      -901      -901      ----      ----      ----      ----      ----      ----      ----
09/24 23:00      ----      ----      ----      ----      ----      ----      ----      ----      ----      ----      ----      ----      ----